Time;durP1;ratioP1;P1;durP2;ratioP2;P2;SDS_P1;SDS_P2;PMS_P1;PMS_P2;Temp;Humidity;BMP_temperature;BMP_pressure;BME280_temperature;BME280_humidity;BME280_pressure;Samples;Min_cycle;Max_cycle;Signal;HPM_P1;HPM_P2
2022/11/30 00:01:21;;;;;;;23.77;10.57;;;;;;;-8.55;60.69;102677.47;6052751;23;20093;-79
2022/11/30 00:03:47;;;;;;;32.03;10.27;;;;;;;-8.42;60.53;102683.88;6059432;23;20014;-78
2022/11/30 00:06:21;;;;;;;25.37;10.47;;;;;;;-9.03;60.81;102567.63;6106472;23;20022;-78
2022/11/30 00:09:28;;;;;;;20.00;8.87;;;;;;;-8.40;60.23;102683.34;6071981;23;20240;-79
2022/11/30 00:11:54;;;;;;;22.57;9.67;;;;;;;-8.44;60.29;102681.19;6046187;23;20045;-82
2022/11/30 00:14:20;;;;;;;23.97;9.27;;;;;;;-8.44;60.31;102686.25;6071566;23;20461;-80
2022/11/30 00:17:18;;;;;;;20.33;8.73;;;;;;;-8.44;60.29;102682.78;6098789;23;20510;-82
2022/11/30 00:19:44;;;;;;;23.97;9.23;;;;;;;-8.48;60.45;102669.81;6072405;23;20021;-80
2022/11/30 00:22:10;;;;;;;21.73;8.97;;;;;;;-8.99;60.35;102577.34;6072740;23;20448;-79
2022/11/30 00:24:36;;;;;;;21.67;8.47;;;;;;;-8.41;60.18;102670.53;6070608;23;20014;-79
2022/11/30 00:27:02;;;;;;;20.17;8.67;;;;;;;-8.40;60.48;102667.28;6096147;23;20073;-79
2022/11/30 00:29:28;;;;;;;19.97;8.83;;;;;;;-8.56;60.47;102644.44;6096341;23;20018;-80
2022/11/30 00:31:54;;;;;;;20.00;8.63;;;;;;;-8.34;60.44;102678.06;6096984;23;20073;-79
2022/11/30 00:34:20;;;;;;;20.23;9.27;;;;;;;-8.35;60.18;102666.16;6070911;23;20424;-81
2022/11/30 00:36:46;;;;;;;23.23;10.50;;;;;;;-8.35;60.44;102661.13;6071279;23;20074;-79
2022/11/30 00:39:12;;;;;;;26.73;9.97;;;;;;;-8.47;60.27;102640.41;6099904;23;20119;-82
2022/11/30 00:41:38;;;;;;;20.97;9.53;;;;;;;-8.64;60.25;102616.72;6095224;23;20029;-79
2022/11/30 00:44:05;;;;;;;20.87;9.03;;;;;;;-8.53;60.24;102632.16;6094977;23;20014;-79
2022/11/30 00:46:32;;;;;;;21.13;9.13;;;;;;;-8.33;60.30;102667.25;6097218;23;20018;-78
2022/11/30 00:48:58;;;;;;;36.20;9.80;;;;;;;-8.31;60.27;102663.28;6097343;23;20053;-80
2022/11/30 00:51:24;;;;;;;38.23;9.57;;;;;;;-8.45;60.30;102635.53;6071925;23;20588;-79
2022/11/30 00:53:50;;;;;;;20.40;8.80;;;;;;;-8.57;59.93;102617.38;6071683;23;20452;-78
2022/11/30 00:56:17;;;;;;;20.83;10.10;;;;;;;-8.36;60.23;102649.22;6053189;23;20014;-79
2022/11/30 00:58:43;;;;;;;24.38;9.90;;;;;;;-8.57;59.69;102627.50;6098888;23;20026;-79
2022/11/30 01:01:09;;;;;;;22.40;9.80;;;;;;;-8.42;60.21;102653.56;6101327;23;20022;-79
2022/11/30 01:03:35;;;;;;;21.33;9.67;;;;;;;-8.65;60.16;102612.38;6113425;23;20022;-78
2022/11/30 01:06:08;;;;;;;22.73;10.17;;;;;;;-8.44;59.79;102649.97;6096165;23;20003;-78
2022/11/30 01:08:34;;;;;;;21.07;9.90;;;;;;;-8.43;60.05;102656.81;6108208;23;20536;-77
2022/11/30 01:11:07;;;;;;;23.73;9.73;;;;;;;-8.73;60.20;102600.50;6098578;23;20376;-78
2022/11/30 01:13:33;;;;;;;22.70;9.73;;;;;;;-8.50;60.19;102638.50;6026021;23;20075;-79
2022/11/30 01:16:00;;;;;;;22.73;9.90;;;;;;;-8.64;60.06;102619.25;6075109;23;20018;-81
2022/11/30 01:18:26;;;;;;;22.40;9.05;;;;;;;-8.45;59.92;102651.59;6071064;23;20107;-80
2022/11/30 01:20:53;;;;;;;27.13;9.63;;;;;;;-8.43;60.34;102657.72;6070915;23;20050;-80
2022/11/30 01:23:19;;;;;;;26.60;10.50;;;;;;;-8.41;59.93;102652.84;6071384;23;20057;-80
2022/11/30 01:25:55;;;;;;;20.60;9.33;;;;;;;-8.49;60.34;102642.78;6094926;23;20033;-80
2022/11/30 01:28:21;;;;;;;21.67;9.77;;;;;;;-8.43;59.98;102649.22;6070915;23;20409;-78
2022/11/30 01:31:08;;;;;;;22.20;10.17;;;;;;;-8.45;59.91;102655.72;6070144;23;20564;-77
2022/11/30 01:33:35;;;;;;;28.53;10.17;;;;;;;-8.55;60.02;102642.13;6023600;23;20507;-80
2022/11/30 01:36:03;;;;;;;25.03;9.33;;;;;;;-8.47;59.89;102658.97;6072097;23;20437;-80
2022/11/30 01:38:35;;;;;;;27.23;10.50;;;;;;;-8.69;59.60;102622.88;6072578;23;20021;-79
2022/11/30 01:41:03;;;;;;;22.92;10.30;;;;;;;-8.65;59.66;102619.06;6072647;23;20022;-82
2022/11/30 01:43:36;;;;;;;24.70;10.50;;;;;;;-8.57;60.05;102633.47;6072450;23;20022;-78
2022/11/30 01:46:02;;;;;;;29.20;11.87;;;;;;;-8.76;59.84;102594.22;6047329;23;20081;-78
2022/11/30 01:48:28;;;;;;;26.30;11.30;;;;;;;-8.66;59.52;102617.25;6072259;23;20349;-77
2022/11/30 01:50:55;;;;;;;27.00;12.67;;;;;;;-8.76;59.87;102590.06;6024869;23;20028;-79
2022/11/30 01:53:23;;;;;;;23.77;10.83;;;;;;;-8.49;59.95;102639.38;6073495;23;20126;-82
2022/11/30 01:55:49;;;;;;;26.17;11.17;;;;;;;-8.44;59.99;102649.97;6100183;23;20034;-80
2022/11/30 01:58:26;;;;;;;25.60;10.55;;;;;;;-8.59;59.96;102634.00;6028841;23;20022;-79
2022/11/30 02:00:52;;;;;;;25.53;10.93;;;;;;;-8.60;59.51;102633.09;6101463;23;20022;-79
2022/11/30 02:03:24;;;;;;;23.07;10.90;;;;;;;-8.48;59.82;102642.03;6105052;23;20025;-78
2022/11/30 02:05:50;;;;;;;;;;;;;;;-8.52;59.45;102647.53;6098304;23;20046;-80
2022/11/30 02:08:18;;;;;;;23.70;9.93;;;;;;;-8.54;59.34;102651.50;6072321;23;19913;-80
2022/11/30 02:10:49;;;;;;;27.03;12.50;;;;;;;-8.52;59.75;102641.56;6046778;23;20026;-78
2022/11/30 02:13:37;;;;;;;28.27;12.50;;;;;;;-8.53;59.48;102645.72;6048343;23;20018;-80
2022/11/30 02:16:09;;;;;;;29.30;13.07;;;;;;;-8.50;59.78;102650.22;6063512;23;20022;-77
2022/11/30 02:18:54;;;;;;;;;;;;;;;-8.51;59.65;102644.25;6072677;23;20456;-79
2022/11/30 02:21:43;;;;;;;29.03;11.50;;;;;;;-8.55;59.59;102646.25;6072491;23;19940;-78
2022/11/30 02:24:34;;;;;;;23.87;11.63;;;;;;;-8.65;58.99;102646.81;6101749;23;20062;-79
2022/11/30 02:27:22;;;;;;;40.40;14.83;;;;;;;-8.83;59.45;102622.94;6092289;23;20033;-79
2022/11/30 02:30:03;;;;;;;41.07;13.60;;;;;;;-8.79;59.52;102641.13;6050444;23;20054;-80
2022/11/30 02:33:02;;;;;;;28.67;11.30;;;;;;;-8.81;59.30;102652.66;6100445;23;20022;-79
2022/11/30 02:35:33;;;;;;;26.67;10.93;;;;;;;-9.10;58.50;102642.63;6103078;23;20022;-77
2022/11/30 02:38:00;;;;;;;30.77;12.10;;;;;;;-9.43;58.31;102617.81;6103658;23;20456;-79
2022/11/30 02:40:26;;;;;;;30.00;12.10;;;;;;;-9.55;58.75;102644.09;6099137;23;20023;-80
2022/11/30 02:42:54;;;;;;;29.00;11.50;;;;;;;-9.90;58.14;102620.69;6096598;23;20534;-77
2022/11/30 02:46:09;;;;;;;29.33;11.93;;;;;;;-9.64;60.40;102643.03;6096430;23;20021;-76
2022/11/30 02:48:47;;;;;;;28.80;11.87;;;;;;;-9.42;59.83;102637.28;6098470;23;20022;-77
2022/11/30 02:51:19;;;;;;;23.23;11.30;;;;;;;-9.38;59.87;102629.31;6100885;23;20357;-77
2022/11/30 02:53:46;;;;;;;24.98;11.18;;;;;;;-9.34;59.78;102624.63;6100304;23;20019;-80
2022/11/30 02:56:12;;;;;;;24.47;11.43;;;;;;;-9.18;59.86;102630.75;6099702;23;20028;-79
2022/11/30 02:58:39;;;;;;;22.67;11.47;;;;;;;-9.22;60.18;102610.94;6073996;23;20030;-78
2022/11/30 03:01:06;;;;;;;24.80;10.80;;;;;;;-9.37;58.83;102630.22;6071601;23;20025;-79
2022/11/30 03:03:32;;;;;;;24.50;11.57;;;;;;;-9.52;59.39;102611.69;6048280;23;20060;-79
2022/11/30 03:05:58;;;;;;;26.27;11.23;;;;;;;-9.77;58.80;102583.59;6072635;23;20100;-78
2022/11/30 03:08:24;;;;;;;28.73;10.27;;;;;;;-9.78;59.31;102604.47;6071886;23;20037;-79
2022/11/30 03:10:50;;;;;;;27.57;11.13;;;;;;;-9.82;59.86;102616.53;6095277;23;20049;-80
2022/11/30 03:13:16;;;;;;;22.60;10.33;;;;;;;-9.85;60.02;102590.25;6071960;23;20089;-75
2022/11/30 03:15:42;;;;;;;22.30;10.10;;;;;;;-9.81;58.62;102624.28;6095388;23;20453;-79
2022/11/30 03:18:08;;;;;;;24.60;10.83;;;;;;;-9.87;60.45;102601.78;6095172;23;20475;-80
2022/11/30 03:20:34;;;;;;;26.10;11.57;;;;;;;-9.60;60.21;102625.03;6095334;23;20030;-78
2022/11/30 03:23:01;;;;;;;23.87;10.83;;;;;;;-9.62;60.46;102596.22;6048275;23;20073;-79
2022/11/30 03:25:28;;;;;;;22.27;10.40;;;;;;;-9.26;59.99;102639.03;6071098;23;20014;-80
2022/11/30 03:27:54;;;;;;;26.40;10.83;;;;;;;-9.28;60.42;102630.41;6102148;23;20042;-76
2022/11/30 03:30:20;;;;;;;24.47;11.10;;;;;;;-9.19;60.18;102626.44;6059568;23;20022;-81
2022/11/30 03:32:46;;;;;;;25.67;10.93;;;;;;;-9.10;60.13;102637.56;6095615;23;20022;-79
2022/11/30 03:35:13;;;;;;;26.63;10.63;;;;;;;-9.28;60.42;102600.13;6096988;23;20018;-77
2022/11/30 03:37:39;;;;;;;32.47;11.93;;;;;;;-9.42;59.06;102642.31;6096363;23;20022;-79
2022/11/30 03:40:06;;;;;;;27.43;10.30;;;;;;;-9.58;59.74;102631.13;6097084;23;20018;-78
2022/11/30 03:42:32;;;;;;;27.33;11.90;;;;;;;-9.78;59.74;102617.06;6071365;23;20460;-78
2022/11/30 03:44:58;;;;;;;30.87;13.03;;;;;;;-9.81;60.05;102634.34;6072166;23;20073;-79
2022/11/30 03:47:24;;;;;;;29.13;12.53;;;;;;;-9.84;60.40;102614.75;6096237;23;20367;-80
2022/11/30 03:49:50;;;;;;;30.67;12.80;;;;;;;-9.76;60.06;102613.13;6095023;23;20050;-79
2022/11/30 03:52:16;;;;;;;27.90;12.57;;;;;;;-9.50;60.23;102627.00;6046678;23;20441;-77
2022/11/30 03:54:47;;;;;;;28.47;12.87;;;;;;;-9.51;60.25;102633.66;6070712;23;20105;-80
2022/11/30 03:57:13;;;;;;;26.65;13.40;;;;;;;-9.61;59.92;102598.91;6046813;23;20403;-79
2022/11/30 03:59:42;;;;;;;28.70;13.47;;;;;;;-9.47;60.19;102619.78;6048163;23;20056;-80
2022/11/30 04:08:40;;;;;;;23.63;12.37;;;;;;;-10.14;60.17;102549.91;5977004;23;20461;-79
2022/11/30 04:11:06;;;;;;;26.37;12.67;;;;;;;-9.78;59.69;102606.09;6036832;23;20050;-78
2022/11/30 04:13:34;;;;;;;31.17;12.57;;;;;;;-9.80;59.88;102587.38;6013015;23;20019;-80
2022/11/30 04:16:00;;;;;;;30.50;12.03;;;;;;;-9.80;60.15;102568.09;6036252;23;20030;-80
2022/11/30 04:18:28;;;;;;;26.67;12.03;;;;;;;-9.51;60.41;102620.16;6037237;23;20036;-80
2022/11/30 04:20:56;;;;;;;27.10;11.43;;;;;;;-9.39;59.75;102632.59;6038163;23;20026;-80
2022/11/30 04:23:23;;;;;;;34.53;11.60;;;;;;;-9.40;60.00;102635.81;6037456;23;20019;-79
2022/11/30 04:25:49;;;;;;;32.70;12.07;;;;;;;-9.68;59.92;102568.63;6036712;23;20019;-79
2022/11/30 04:28:16;;;;;;;26.70;10.90;;;;;;;-9.38;60.08;102624.25;6036348;23;20042;-79
2022/11/30 04:30:45;;;;;;;28.43;12.17;;;;;;;-9.29;60.02;102631.13;6036967;23;20023;-79
2022/11/30 04:33:12;;;;;;;27.17;11.13;;;;;;;-9.33;59.61;102632.41;6036871;23;20019;-79
2022/11/30 04:35:47;;;;;;;24.03;10.47;;;;;;;-9.71;58.18;102638.91;6037629;23;20023;-79
2022/11/30 04:38:13;;;;;;;24.70;10.77;;;;;;;-9.80;59.18;102645.34;6027564;23;20044;-78
2022/11/30 04:40:40;;;;;;;26.43;11.17;;;;;;;-9.88;60.15;102629.34;6080599;23;20025;-77
2022/11/30 04:43:07;;;;;;;23.10;10.93;;;;;;;-9.77;60.24;102634.00;6111363;23;20022;-82
2022/11/30 04:45:33;;;;;;;29.93;11.77;;;;;;;-9.62;60.12;102639.97;6050417;23;20284;-80
2022/11/30 04:47:59;;;;;;;27.63;10.77;;;;;;;-9.79;60.22;102592.59;6099756;23;20018;-80
2022/11/30 04:50:25;;;;;;;26.70;10.77;;;;;;;-9.62;59.30;102623.94;6098906;23;20097;-79
2022/11/30 04:52:51;;;;;;;26.87;12.37;;;;;;;-9.56;59.65;102647.34;6073063;23;20091;-77
2022/11/30 04:55:20;;;;;;;25.23;11.33;;;;;;;-10.19;60.01;102558.56;6099622;23;20472;-81
2022/11/30 04:57:46;;;;;;;33.17;14.87;;;;;;;-9.66;60.10;102634.38;6073566;23;20464;-79
2022/11/30 05:00:15;;;;;;;37.13;16.33;;;;;;;-9.63;59.71;102638.16;6101187;23;20018;-78
2022/11/30 05:02:41;;;;;;;34.90;13.53;;;;;;;-9.71;59.78;102619.63;6098974;23;20409;-80
2022/11/30 05:05:08;;;;;;;30.00;11.87;;;;;;;-9.68;59.43;102619.97;6097834;23;20015;-79
2022/11/30 05:07:34;;;;;;;24.57;10.90;;;;;;;-9.49;60.08;102644.81;6071968;23;20021;-79
2022/11/30 05:10:00;;;;;;;28.90;11.73;;;;;;;-9.76;59.27;102628.25;6100090;23;20026;-79
2022/11/30 05:12:26;;;;;;;26.23;12.13;;;;;;;-9.56;60.54;102663.38;6104011;23;20018;-78
2022/11/30 05:14:54;;;;;;;27.67;12.23;;;;;;;-9.52;60.19;102646.09;6052030;23;20077;-79
2022/11/30 05:17:20;;;;;;;24.50;11.83;;;;;;;-9.43;59.73;102659.78;6099838;23;20098;-77
2022/11/30 05:19:46;;;;;;;28.70;12.73;;;;;;;-9.47;59.93;102653.47;6049477;23;20402;-78
2022/11/30 05:22:12;;;;;;;33.67;12.70;;;;;;;-9.50;59.60;102630.41;6099366;23;20029;-81
2022/11/30 05:24:38;;;;;;;31.77;13.93;;;;;;;-9.40;59.60;102640.88;6098004;23;20338;-79
2022/11/30 05:27:04;;;;;;;39.37;14.03;;;;;;;-9.39;59.58;102647.72;6098796;23;20465;-80
2022/11/30 05:29:30;;;;;;;31.40;14.03;;;;;;;-9.65;59.65;102585.75;6099952;23;20089;-79
2022/11/30 05:31:57;;;;;;;34.23;15.33;;;;;;;-9.68;58.95;102594.78;6101692;23;20053;-78
2022/11/30 05:34:23;;;;;;;42.03;18.20;;;;;;;-9.38;59.14;102654.53;6074301;23;20405;-78
2022/11/30 05:36:50;;;;;;;51.50;18.37;;;;;;;-9.43;59.21;102659.78;6100576;23;20018;-79
2022/11/30 05:39:16;;;;;;;42.07;17.73;;;;;;;-9.41;59.71;102639.06;6098136;23;20022;-79
2022/11/30 05:41:42;;;;;;;46.63;18.30;;;;;;;-9.12;59.29;102651.63;6099267;23;20014;-78
2022/11/30 05:44:08;;;;;;;38.30;14.60;;;;;;;-9.18;59.05;102595.44;6075054;23;20026;-79
2022/11/30 05:46:34;;;;;;;42.73;16.03;;;;;;;-8.71;59.11;102634.41;6099118;23;20077;-79
2022/11/30 05:49:00;;;;;;;43.53;17.07;;;;;;;-8.50;59.14;102640.09;6050589;23;20437;-78
2022/11/30 05:51:26;;;;;;;34.97;15.83;;;;;;;-8.47;59.15;102618.56;6074345;23;20022;-80
2022/11/30 05:53:52;;;;;;;36.13;16.55;;;;;;;-7.84;58.83;102668.44;6078376;23;20033;-78
2022/11/30 05:56:20;;;;;;;32.88;16.08;;;;;;;-7.54;59.03;102627.00;6120715;23;20018;-80
2022/11/30 05:58:47;;;;;;;34.10;16.20;;;;;;;-6.77;59.14;102644.50;6095645;23;19994;-80
2022/11/30 06:01:20;;;;;;;42.55;18.20;;;;;;;-6.03;58.63;102658.97;6118844;23;20069;-78
2022/11/30 06:03:47;;;;;;;39.67;18.58;;;;;;;-5.56;58.01;102644.28;6121300;23;20062;-77
2022/11/30 06:06:13;;;;;;;46.85;18.67;;;;;;;-5.02;57.77;102654.78;6098383;23;20042;-78
2022/11/30 06:08:40;;;;;;;46.70;19.63;;;;;;;-4.85;57.74;102621.78;6074910;23;20079;-80
2022/11/30 06:11:09;;;;;;;38.25;18.40;;;;;;;-4.76;57.49;102641.22;6122664;23;20028;-79
2022/11/30 06:13:38;;;;;;;41.90;19.13;;;;;;;-4.57;57.28;102611.78;6120529;23;20022;-78
2022/11/30 06:16:08;;;;;;;41.83;18.50;;;;;;;-3.88;57.05;102624.25;6120939;23;20022;-79
2022/11/30 06:18:35;;;;;;;35.42;18.25;;;;;;;-3.31;56.43;102649.06;6093344;23;20019;-77
2022/11/30 06:21:03;;;;;;;48.03;19.45;;;;;;;-3.27;54.98;102645.13;6109565;23;20029;-82
2022/11/30 06:23:30;;;;;;;47.45;19.85;;;;;;;-3.09;55.69;102653.59;6101555;23;20102;-82
2022/11/30 06:25:56;;;;;;;41.72;18.95;;;;;;;-2.98;55.37;102591.75;6053625;23;20022;-80
2022/11/30 06:28:23;;;;;;;38.30;19.48;;;;;;;-2.44;54.90;102654.34;6075854;23;20014;-81
2022/11/30 06:31:11;;;;;;;49.53;20.65;;;;;;;-2.43;54.31;102623.00;6075038;23;20029;-79
2022/11/30 06:33:46;;;;;;;49.65;22.00;;;;;;;-2.25;53.89;102653.44;6074015;23;20022;-81
2022/11/30 06:36:19;;;;;;;39.63;18.50;;;;;;;-3.00;53.12;102556.72;6074120;23;20460;-80
2022/11/30 06:38:48;;;;;;;38.75;18.30;;;;;;;-3.07;53.16;102621.47;6098318;23;20153;-80
2022/11/30 06:41:14;;;;;;;42.15;19.42;;;;;;;-3.38;52.95;102622.09;6099746;23;20201;-82
2022/11/30 06:43:40;;;;;;;38.50;18.17;;;;;;;-3.55;51.37;102657.81;6099345;23;20022;-81
2022/11/30 06:46:22;;;;;;;35.90;17.15;;;;;;;-4.28;52.45;102628.94;6099327;23;20060;-79
2022/11/30 06:48:49;;;;;;;;;;;;;;;-3.98;51.92;102675.03;6085018;23;20026;-80
2022/11/30 06:51:15;;;;;;;39.50;18.25;;;;;;;-4.72;51.47;102598.47;6114605;23;19913;-80
2022/11/30 06:53:43;;;;;;;42.83;18.23;;;;;;;-4.56;52.57;102618.66;6094675;23;20029;-79
2022/11/30 06:56:09;;;;;;;50.38;22.35;;;;;;;-4.17;52.58;102667.25;6086250;23;20409;-80
2022/11/30 06:58:37;;;;;;;39.95;17.73;;;;;;;-3.94;52.65;102657.66;6107430;23;20441;-79
2022/11/30 07:01:09;;;;;;;35.75;18.58;;;;;;;-3.69;51.40;102669.25;6083219;23;20078;-81
2022/11/30 07:03:36;;;;;;;42.15;18.80;;;;;;;-3.54;52.20;102667.25;6064135;23;20038;-81
2022/11/30 07:06:10;;;;;;;38.33;17.67;;;;;;;-4.03;50.85;102623.69;6088456;23;20412;-78
2022/11/30 07:08:37;;;;;;;39.10;19.15;;;;;;;-3.94;51.28;102641.47;6091433;23;20036;-79
2022/11/30 07:11:05;;;;;;;44.35;18.63;;;;;;;-4.09;50.67;102596.00;6112292;23;20054;-78
2022/11/30 07:13:31;;;;;;;38.58;19.63;;;;;;;-3.89;51.18;102631.75;6066374;23;20029;-80
2022/11/30 07:15:57;;;;;;;39.67;19.10;;;;;;;-3.79;51.08;102659.84;6107384;23;20022;-80
2022/11/30 07:18:23;;;;;;;40.30;18.65;;;;;;;-4.18;51.63;102566.25;6100495;23;20018;-79
2022/11/30 07:20:49;;;;;;;36.25;19.13;;;;;;;-3.78;51.18;102654.91;6076995;23;20033;-80
2022/11/30 07:26:05;;;;;;;44.75;19.50;;;;;;;-3.80;49.35;102679.31;6099148;23;20018;-79
2022/11/30 07:28:39;;;;;;;41.22;20.38;;;;;;;-4.18;50.54;102624.75;6099097;23;20022;-80
2022/11/30 07:31:16;;;;;;;48.78;20.90;;;;;;;-4.04;50.96;102685.47;6051532;23;20046;-81
2022/11/30 07:33:43;;;;;;;38.08;17.75;;;;;;;-4.01;49.63;102690.00;6100649;23;20479;-80
2022/11/30 07:36:10;;;;;;;41.72;18.08;;;;;;;-4.55;49.79;102656.03;6100227;23;20026;-82
2022/11/30 07:38:36;;;;;;;35.55;16.98;;;;;;;-4.69;49.92;102675.03;6029680;23;20022;-83
2022/11/30 07:41:04;;;;;;;39.70;17.00;;;;;;;-5.21;48.65;102690.09;6100524;23;20471;-78
2022/11/30 07:43:30;;;;;;;39.35;18.10;;;;;;;-5.24;50.23;102698.31;6075545;23;20056;-79
2022/11/30 07:45:57;;;;;;;35.90;18.08;;;;;;;-5.77;51.04;102578.81;6074166;23;20014;-80
2022/11/30 07:48:23;;;;;;;42.85;17.40;;;;;;;-5.38;50.90;102605.53;6051961;23;20022;-80
2022/11/30 07:50:49;;;;;;;39.50;16.65;;;;;;;-4.99;50.57;102666.13;6051863;23;20025;-80
2022/11/30 07:53:17;;;;;;;38.03;16.88;;;;;;;-5.23;49.42;102700.13;6101887;23;20050;-79
2022/11/30 07:55:44;;;;;;;41.95;16.83;;;;;;;-5.64;49.63;102674.84;6101648;23;20057;-79
2022/11/30 07:58:11;;;;;;;40.58;17.40;;;;;;;-5.82;50.97;102645.94;6100511;23;20042;-79
2022/11/30 08:00:37;;;;;;;34.83;15.77;;;;;;;-5.00;51.07;102699.00;6075495;23;20018;-82
2022/11/30 08:03:04;;;;;;;40.17;16.52;;;;;;;-4.72;52.12;102643.31;6074700;23;20026;-81
2022/11/30 08:05:36;;;;;;;35.65;16.65;;;;;;;-3.88;52.14;102686.97;6074423;23;20014;-82
2022/11/30 08:08:02;;;;;;;34.55;14.38;;;;;;;-3.67;50.94;102688.13;6097508;23;20116;-82
2022/11/30 08:10:28;;;;;;;36.63;13.48;;;;;;;-3.91;49.65;102667.22;6072756;23;20105;-79
2022/11/30 08:12:54;;;;;;;32.75;12.50;;;;;;;-3.99;50.83;102641.03;6099494;23;20490;-80
2022/11/30 08:15:20;;;;;;;28.20;12.40;;;;;;;-3.72;50.36;102679.13;6099710;23;20022;-82
2022/11/30 08:17:49;;;;;;;26.17;11.75;;;;;;;-3.90;50.62;102624.88;6099434;23;20022;-79
2022/11/30 08:20:16;;;;;;;28.52;11.73;;;;;;;-3.14;51.23;102663.34;6076764;23;20018;-81
2022/11/30 08:22:42;;;;;;;27.88;12.20;;;;;;;-3.31;50.23;102547.19;6093318;23;20026;-79
2022/11/30 08:25:08;;;;;;;26.60;11.45;;;;;;;-2.22;49.45;102677.56;6112085;23;20021;-80
2022/11/30 08:27:34;;;;;;;25.67;11.57;;;;;;;-1.67;51.09;102671.31;6109726;23;20421;-79
2022/11/30 08:30:01;;;;;;;26.92;11.75;;;;;;;-0.81;50.75;102674.28;6073798;23;20046;-80
2022/11/30 08:32:30;;;;;;;27.60;13.00;;;;;;;-0.24;51.08;102661.81;6100085;23;20018;-81
2022/11/30 08:34:56;;;;;;;32.78;13.63;;;;;;;1.04;51.17;102651.28;6101992;23;20018;-81
2022/11/30 08:37:23;;;;;;;33.15;13.05;;;;;;;2.60;50.26;102647.00;6099944;23;20018;-80
2022/11/30 08:39:49;;;;;;;28.30;13.05;;;;;;;4.17;49.00;102632.34;6072601;23;20064;-80
2022/11/30 08:42:15;;;;;;;30.05;14.05;;;;;;;5.21;48.49;102553.38;6024871;23;20018;-81
2022/11/30 08:44:41;;;;;;;31.13;14.93;;;;;;;6.05;46.65;102594.22;6098876;23;20159;-79
2022/11/30 08:47:07;;;;;;;29.80;14.52;;;;;;;6.25;44.51;102600.44;6075036;23;20022;-82
2022/11/30 08:49:34;;;;;;;28.75;13.68;;;;;;;5.95;41.73;102595.38;6075609;23;20022;-81
2022/11/30 08:52:00;;;;;;;28.23;13.82;;;;;;;5.82;40.33;102619.66;6074418;23;20018;-81
2022/11/30 08:54:26;;;;;;;29.50;13.75;;;;;;;4.67;40.14;102623.38;6099693;23;20014;-80
2022/11/30 08:56:52;;;;;;;33.60;15.90;;;;;;;5.00;43.91;102590.03;6078047;23;20019;-79
2022/11/30 08:59:18;;;;;;;37.78;16.77;;;;;;;6.93;43.17;102612.63;6053378;23;20023;-79
2022/11/30 09:01:44;;;;;;;37.13;17.00;;;;;;;7.59;40.42;102576.97;6079591;23;20018;-79
2022/11/30 09:04:10;;;;;;;30.98;16.67;;;;;;;7.37;38.20;102591.47;6055742;23;20065;-83
2022/11/30 09:06:37;;;;;;;33.13;17.50;;;;;;;7.95;38.46;102576.91;6079975;23;20021;-81
2022/11/30 09:09:03;;;;;;;37.58;18.30;;;;;;;9.33;38.52;102596.75;6057629;23;20018;-80
2022/11/30 09:11:32;;;;;;;28.35;14.63;;;;;;;9.41;33.64;102580.56;6103495;23;20461;-80
2022/11/30 09:14:01;;;;;;;33.53;14.55;;;;;;;8.73;34.87;102602.91;6103880;23;20333;-80
2022/11/30 09:16:27;;;;;;;32.92;14.95;;;;;;;8.12;34.90;102591.53;6081007;23;20018;-81
2022/11/30 09:18:56;;;;;;;31.55;15.15;;;;;;;7.79;36.29;102607.31;6074469;23;20022;-80
2022/11/30 09:21:25;;;;;;;29.60;15.68;;;;;;;7.81;36.13;102584.94;6100553;23;20022;-82
2022/11/30 09:23:54;;;;;;;34.13;16.63;;;;;;;7.65;35.81;102560.00;6099914;23;20018;-81
2022/11/30 09:26:23;;;;;;;32.97;16.00;;;;;;;8.06;34.90;102591.25;6074919;23;20042;-79
2022/11/30 09:28:53;;;;;;;32.83;17.27;;;;;;;6.94;32.94;102585.03;6076559;23;20046;-80
2022/11/30 09:31:22;;;;;;;47.35;23.40;;;;;;;5.92;33.13;102616.75;6077449;23;20025;-80
2022/11/30 09:33:54;;;;;;;47.35;25.00;;;;;;;3.68;33.14;102498.75;6079484;23;20424;-80
2022/11/30 09:36:21;;;;;;;51.63;23.98;;;;;;;4.85;36.11;102609.78;6088440;23;20026;-80
2022/11/30 09:38:47;;;;;;;44.42;21.95;;;;;;;5.21;34.25;102553.38;6076233;23;20329;-80
2022/11/30 09:41:40;;;;;;;34.53;19.50;;;;;;;5.93;35.85;102591.81;6100197;23;20018;-80
2022/11/30 09:44:23;;;;;;;34.42;20.50;;;;;;;6.85;34.89;102600.09;6073223;23;20333;-82
2022/11/30 09:47:11;;;;;;;40.40;20.08;;;;;;;7.16;33.72;102587.00;6099196;23;20045;-78
2022/11/30 09:49:50;;;;;;;39.58;19.60;;;;;;;6.22;32.70;102544.28;6085143;23;20026;-80
2022/11/30 09:52:39;;;;;;;45.83;20.90;;;;;;;5.04;32.01;102612.66;6080382;23;20077;-80
2022/11/30 09:55:13;;;;;;;37.60;18.88;;;;;;;3.61;34.43;102565.34;6099473;23;20487;-81
2022/11/30 09:57:51;;;;;;;32.97;15.98;;;;;;;2.78;34.13;102614.81;6051327;23;20042;-80
2022/11/30 10:00:22;;;;;;;32.13;18.02;;;;;;;1.75;35.93;102603.38;6099973;23;20018;-82
2022/11/30 10:02:55;;;;;;;34.08;17.52;;;;;;;0.70;36.28;102622.19;6076251;23;20022;-82
2022/11/30 10:05:27;;;;;;;37.88;18.42;;;;;;;-0.04;36.82;102596.84;6009324;23;20049;-82
2022/11/30 10:07:55;;;;;;;36.55;17.45;;;;;;;-0.36;37.02;102631.91;6077791;23;20069;-81
2022/11/30 10:10:33;;;;;;;35.83;17.17;;;;;;;-0.76;39.36;102626.06;6104523;23;20130;-81
2022/11/30 10:13:11;;;;;;;37.10;18.42;;;;;;;-1.04;39.95;102644.25;6077653;23;20030;-83
2022/11/30 10:15:47;;;;;;;46.67;19.15;;;;;;;-1.26;40.29;102639.88;6098295;23;20105;-80
2022/11/30 10:18:31;;;;;;;46.42;19.08;;;;;;;-1.40;40.78;102640.34;6075610;23;20073;-80
2022/11/30 10:21:13;;;;;;;43.10;18.63;;;;;;;-2.15;39.79;102638.16;6102237;23;20022;-83
2022/11/30 10:24:06;;;;;;;41.45;18.30;;;;;;;-2.65;41.34;102649.13;6105046;23;20018;-79
2022/11/30 10:26:37;;;;;;;34.97;17.77;;;;;;;-2.76;42.17;102626.84;6078410;23;20050;-79
2022/11/30 10:29:19;;;;;;;43.00;18.75;;;;;;;-2.57;42.48;102639.59;6101536;23;20086;-81
2022/11/30 10:31:50;;;;;;;40.25;18.92;;;;;;;-2.83;41.36;102609.19;6099874;23;20022;-81
2022/11/30 10:34:22;;;;;;;39.22;17.98;;;;;;;-2.91;43.42;102636.53;6101393;23;20041;-83
2022/11/30 10:37:02;;;;;;;35.88;17.50;;;;;;;-3.12;43.30;102613.44;6054259;23;20025;-81
2022/11/30 10:39:42;;;;;;;42.00;19.90;;;;;;;-2.95;42.59;102612.44;6101782;23;20047;-80
2022/11/30 10:42:41;;;;;;;38.83;18.55;;;;;;;-2.74;43.91;102632.97;6076635;23;20495;-80
2022/11/30 10:45:13;;;;;;;51.45;23.27;;;;;;;-3.41;43.67;102642.19;6078009;23;20014;-80
2022/11/30 10:47:46;;;;;;;59.33;29.88;;;;;;;-3.56;45.04;102630.56;6104512;23;20022;-82
2022/11/30 10:50:19;;;;;;;58.58;28.27;;;;;;;-3.41;45.68;102621.81;6091667;23;20449;-83
2022/11/30 10:56:00;;;;;;;51.88;24.40;;;;;;;-3.84;43.79;102621.25;6073333;23;20042;-80
2022/11/30 10:58:31;;;;;;;39.33;18.95;;;;;;;-3.92;45.15;102623.81;6072781;23;20046;-80
2022/11/30 11:01:03;;;;;;;39.42;18.27;;;;;;;-4.20;46.00;102611.91;6097066;23;20022;-81
2022/11/30 11:03:30;;;;;;;49.13;21.73;;;;;;;-3.85;46.43;102636.34;6098530;23;20052;-82
2022/11/30 11:06:19;;;;;;;43.40;18.17;;;;;;;-3.85;46.59;102628.72;6050207;23;20018;-82
2022/11/30 11:08:46;;;;;;;45.80;20.60;;;;;;;-4.33;45.82;102637.81;6073551;23;20022;-82
2022/11/30 11:11:31;;;;;;;51.33;20.65;;;;;;;-4.47;46.87;102639.00;6074004;23;20101;-81
2022/11/30 11:14:21;;;;;;;48.28;19.42;;;;;;;-4.52;47.29;102635.09;6099612;23;20464;-79
2022/11/30 11:16:49;;;;;;;39.90;17.20;;;;;;;-4.58;47.70;102612.53;6072377;23;20018;-82
2022/11/30 11:19:49;;;;;;;33.60;15.00;;;;;;;-4.45;47.85;102634.97;6098865;23;20066;-80
2022/11/30 11:22:28;;;;;;;34.63;15.48;;;;;;;-4.72;46.82;102612.81;6073684;23;20049;-79
2022/11/30 11:25:07;;;;;;;39.40;16.63;;;;;;;-5.11;47.36;102608.13;6097574;23;20014;-79
2022/11/30 11:27:34;;;;;;;46.67;18.50;;;;;;;-4.93;48.49;102629.38;6073830;23;20022;-83
2022/11/30 11:30:26;;;;;;;40.38;17.33;;;;;;;-5.63;48.52;102516.78;6097528;23;20110;-81
2022/11/30 11:33:13;;;;;;;35.70;17.92;;;;;;;-4.86;48.88;102636.88;6075199;23;20077;-83
2022/11/30 11:35:42;;;;;;;53.95;19.83;;;;;;;-5.01;48.20;102638.78;6054102;23;20018;-77
2022/11/30 11:38:23;;;;;;;51.45;20.42;;;;;;;-5.12;48.68;102639.34;6086031;23;20022;-79